Main page
METAR-TAF:

METAR-TAF

Airports :

Gibraltar International Airport

Gibraltar, Gibraltar

latitude: 36-09N, longitude: 005-21W, elevation: 5 m

Current weather observation

The report was made 39 minutes ago, at 20:50 UTC
Wind 8 kt from the East
Temperature 19°C
Humidity 88%
Pressure 1017 hPa
Visibility 10 km or more

METAR: LXGB 282050Z AUTO 09008KT 9999 NCD 19/17 Q1017

Time: 23:29 (21:29 UTC)

Forecast

The report was made 5 hours and 13 minutes ago, at 16:16 UTC
Forecast valid from 28 at 18 UTC to 28 at 23 UTC
Wind 7 kt from the East
Visibility 10 km or more
Few clouds at a height of 1000 ft
Probability 30%
from 28 at 19 UTC to 28 at 23 UTC
Visibility: 7000 m
Scattered clouds at a height of 1000 ft
haze

TAF: LXGB 281616Z 2818/2823 10007KT 9999 FEW010 PROB30 2819/2823 7000 HZ SCT010

Weather observations and forecasts of more than 4000 airports (METAR and TAF reports).

The available stations are represented by yellow and red dots on the map.

Hover mouse over dot to see the name of the station.

Then click to see weather observations and forecasts.

To change the map : click on the green buttons with a black cross to zoom in, on the green button with a dash to zoom out, or on the green arrows for adjacent maps.


METAR-TAF: